createdAt,value
2024-01-03T00:02:06.857Z,97800.66
2024-01-03T00:07:10.493Z,97793.69
2024-01-03T00:12:20.232Z,97808.84
2024-01-03T00:17:25.493Z,97813.50
2024-01-03T00:22:33.969Z,97808.22
2024-01-03T00:27:41.046Z,97792.03
2024-01-03T00:32:50.994Z,97795.53
2024-01-03T00:37:59.999Z,97793.47
2024-01-03T00:43:03.583Z,97795.56
2024-01-03T00:48:09.457Z,97789.56
2024-01-03T00:53:14.294Z,97799.31
2024-01-03T00:58:18.125Z,97807.44
2024-01-03T01:03:23.223Z,97791.38
2024-01-03T01:08:27.281Z,97819.63
2024-01-03T01:13:31.078Z,97809.66
2024-01-03T01:18:36.200Z,97817.25
2024-01-03T01:23:43.378Z,97821.09
2024-01-03T01:28:47.041Z,97824.94
2024-01-03T01:33:52.203Z,97825.91
2024-01-03T01:38:55.898Z,97823.50
2024-01-03T01:44:00.153Z,97835.81
2024-01-03T01:49:05.519Z,97834.66
2024-01-03T01:54:09.134Z,97834.69
2024-01-03T01:59:13.008Z,97839.28
2024-01-03T02:04:18.139Z,97858.53
2024-01-03T02:09:21.854Z,97836.41
2024-01-03T02:14:25.384Z,97821.09
2024-01-03T02:19:30.466Z,97830.28
2024-01-03T02:24:35.642Z,97821.75
2024-01-03T02:29:39.235Z,97835.75
2024-01-03T02:34:42.892Z,97838.66
2024-01-03T02:39:47.809Z,97825.09
2024-01-03T02:44:51.502Z,97836.59
2024-01-03T02:49:59.330Z,97834.22
2024-01-03T02:55:05.589Z,97840.31
2024-01-03T03:00:11.312Z,97841.31
2024-01-03T03:05:15.266Z,97852.34
2024-01-03T03:10:20.231Z,97846.84
2024-01-03T03:15:23.951Z,97866.03
2024-01-03T03:20:27.584Z,97853.75
2024-01-03T03:25:32.540Z,97867.66
2024-01-03T03:30:37.485Z,97869.88
2024-01-03T03:35:41.246Z,97859.31
2024-01-03T03:40:46.401Z,97872.81
2024-01-03T03:45:49.959Z,97861.06
2024-01-03T03:50:53.578Z,97861.69
2024-01-03T03:55:58.550Z,97858.72
2024-01-03T04:01:02.132Z,97865.22
2024-01-03T04:06:06.305Z,97887.72
2024-01-03T04:11:11.419Z,97894.19
2024-01-03T04:16:14.975Z,97907.94
2024-01-03T04:21:18.565Z,97896.75
2024-01-03T04:26:23.943Z,97895.44
2024-01-03T04:31:29.150Z,97905.50
2024-01-03T04:36:34.121Z,97912.09
2024-01-03T04:41:39.420Z,97926.41
2024-01-03T04:46:43.200Z,97934.88
2024-01-03T04:51:46.892Z,97943.72
2024-01-03T04:56:52.034Z,97960.22
2024-01-03T05:01:55.679Z,97946.41
2024-01-03T05:06:59.488Z,97954.69
2024-01-03T05:12:04.829Z,97952.75
2024-01-03T05:17:08.468Z,97945.09
2024-01-03T05:22:12.077Z,97952.72
2024-01-03T05:27:17.034Z,97946.53
2024-01-03T05:32:20.789Z,97945.75
2024-01-03T05:37:24.386Z,97948.78
2024-01-03T05:42:29.373Z,97955.63
2024-01-03T05:47:33.064Z,97959.50
2024-01-03T05:52:36.774Z,97985.78
2024-01-03T05:57:41.822Z,97979.06
2024-01-03T06:02:45.422Z,97980.88
2024-01-03T06:07:48.987Z,97987.50
2024-01-03T06:12:53.911Z,97991.00
2024-01-03T06:17:57.531Z,98001.22
2024-01-03T06:23:01.146Z,98002.84
2024-01-03T06:28:07.073Z,98003.50
2024-01-03T06:33:10.982Z,98001.91
2024-01-03T06:38:14.633Z,98005.38
2024-01-03T06:43:19.609Z,98005.09
2024-01-03T06:48:23.434Z,98016.44
2024-01-03T06:53:27.025Z,98016.09
2024-01-03T06:58:33.150Z,98015.84
2024-01-03T07:03:37.206Z,98018.34
2024-01-03T07:08:41.970Z,98011.72
2024-01-03T07:13:46.917Z,98030.81
2024-01-03T07:19:08.835Z,98052.41
2024-01-03T07:24:12.662Z,98058.00
2024-01-03T07:29:17.777Z,98067.25
2024-01-03T07:34:21.408Z,98047.28
2024-01-03T07:39:25.090Z,98052.69
2024-01-03T07:44:35.119Z,98068.81
2024-01-03T07:49:39.069Z,98059.06
2024-01-03T07:54:42.613Z,98066.16
2024-01-03T07:59:47.863Z,98061.13
2024-01-03T08:04:51.374Z,98068.53
2024-01-03T08:09:54.968Z,98050.19
2024-01-03T08:14:59.973Z,98062.69
2024-01-03T08:20:05.190Z,98050.34
2024-01-03T08:25:11.621Z,98058.06
2024-01-03T08:30:16.800Z,98061.69
2024-01-03T08:35:20.464Z,98058.97
2024-01-03T08:40:24.493Z,98069.84
2024-01-03T08:45:29.632Z,98061.38
2024-01-03T08:50:33.244Z,98083.19
2024-01-03T08:55:36.953Z,98068.16
2024-01-03T09:00:44.435Z,98083.19
2024-01-03T09:05:48.184Z,98070.53
2024-01-03T09:10:51.875Z,98075.03
2024-01-03T09:15:56.897Z,98081.13
2024-01-03T09:21:00.535Z,98079.19
2024-01-03T09:26:05.970Z,98060.69
2024-01-03T09:31:11.093Z,98056.47
2024-01-03T09:41:28.696Z,98083.03
2024-01-03T09:46:34.982Z,98073.25
2024-01-03T09:51:38.636Z,98085.78
2024-01-03T09:56:42.989Z,98085.97
2024-01-03T10:01:57.458Z,98089.84
2024-01-03T10:07:01.115Z,98095.16
2024-01-03T10:12:16.718Z,98104.06
2024-01-03T10:17:23.146Z,98106.53
2024-01-03T10:22:27.199Z,98106.22
2024-01-03T10:27:30.761Z,98126.38
2024-01-03T10:32:35.911Z,98117.56
2024-01-03T10:37:39.522Z,98130.31
2024-01-03T10:42:43.719Z,98130.75
2024-01-03T10:47:48.775Z,98127.25
2024-01-03T10:52:57.330Z,98146.31
2024-01-03T10:58:03.336Z,98129.03
2024-01-03T11:03:18.049Z,98132.25
2024-01-03T11:08:23.037Z,98152.41
2024-01-03T11:13:28.069Z,98143.13
2024-01-03T11:18:54.601Z,98144.91
2024-01-03T11:23:58.584Z,98157.63
2024-01-03T11:29:02.548Z,98153.47
2024-01-03T11:34:39.725Z,98149.84
2024-01-03T11:39:44.636Z,98156.75
2024-01-03T11:44:48.494Z,98170.38
2024-01-03T11:49:57.900Z,98157.66
2024-01-03T11:55:07.302Z,98162.31
2024-01-03T12:00:12.388Z,98170.53
2024-01-03T12:05:17.488Z,98167.50
2024-01-03T12:10:21.635Z,98150.66
2024-01-03T12:20:36.239Z,98153.97
2024-01-03T12:25:41.124Z,98143.81
2024-01-03T12:30:45.083Z,98160.28
2024-01-03T12:35:51.027Z,98149.78
2024-01-03T12:40:55.579Z,98156.41
2024-01-03T12:45:59.950Z,98158.50
2024-01-03T12:51:05.232Z,98144.91
2024-01-03T12:56:09.023Z,98146.22
2024-01-03T13:01:14.429Z,98145.06
2024-01-03T13:06:19.681Z,98145.94
2024-01-03T13:11:23.271Z,98144.72
2024-01-03T13:16:27.727Z,98153.72
2024-01-03T13:21:32.758Z,98160.88
2024-01-03T13:26:37.410Z,98157.59
2024-01-03T13:31:41.016Z,98151.34
2024-01-03T13:36:46.530Z,98148.16
2024-01-03T13:41:50.240Z,98146.94
2024-01-03T13:46:55.143Z,98169.03
2024-01-03T13:52:01.257Z,98165.06
2024-01-03T13:57:05.676Z,98171.16
2024-01-03T14:02:09.294Z,98168.72
2024-01-03T14:07:14.277Z,98166.78
2024-01-03T14:12:18.095Z,98171.88
2024-01-03T14:17:22.042Z,98161.59
2024-01-03T14:22:27.385Z,98159.78
2024-01-03T14:27:32.228Z,98148.34
2024-01-03T14:32:35.906Z,98154.13
2024-01-03T14:37:42.169Z,98150.56
2024-01-03T14:42:49.413Z,98146.88
2024-01-03T14:47:53.320Z,98147.69
2024-01-03T14:52:58.304Z,98166.06
2024-01-03T14:58:01.768Z,98171.44
2024-01-03T15:03:10.443Z,98160.81
2024-01-03T15:08:17.837Z,98168.41
2024-01-03T15:13:21.418Z,98173.84
2024-01-03T15:18:25.162Z,98177.47
2024-01-03T15:23:30.352Z,98163.94
2024-01-03T15:28:34.061Z,98168.16
2024-01-03T15:33:38.037Z,98161.56
2024-01-03T15:38:43.745Z,98162.09
2024-01-03T15:43:47.300Z,98163.84
2024-01-03T15:48:51.184Z,98153.16
2024-01-03T15:53:56.377Z,98162.22
2024-01-03T15:59:00.081Z,98158.50
2024-01-03T16:04:03.904Z,98172.84
2024-01-03T16:09:09.455Z,98157.50
2024-01-03T16:14:13.574Z,98161.06
2024-01-03T16:19:18.927Z,98154.03
2024-01-03T16:24:24.295Z,98159.16
2024-01-03T16:29:28.285Z,98164.09
2024-01-03T16:34:32.070Z,98150.06
2024-01-03T16:39:38.260Z,98153.84
2024-01-03T16:44:42.507Z,98149.09
2024-01-03T16:49:46.756Z,98144.25
2024-01-03T16:54:51.777Z,98154.06
2024-01-03T16:59:56.920Z,98152.50
2024-01-03T17:05:00.785Z,98147.53
2024-01-03T17:10:06.393Z,98145.97
2024-01-03T17:15:10.758Z,98143.13
2024-01-03T17:20:15.385Z,98140.66
2024-01-03T17:25:21.657Z,98150.91
2024-01-03T17:30:25.346Z,98157.13
2024-01-03T17:35:29.181Z,98143.59
2024-01-03T17:40:35.072Z,98135.88
2024-01-03T17:45:38.669Z,98135.03
2024-01-03T17:50:42.483Z,98125.41
2024-01-03T17:55:47.690Z,98131.88
2024-01-03T18:00:51.650Z,98134.47
2024-01-03T18:05:55.323Z,98143.25
2024-01-03T18:11:00.725Z,98136.00
2024-01-03T18:16:04.337Z,98139.19
2024-01-03T18:21:08.168Z,98127.84
2024-01-03T18:26:13.460Z,98124.16
2024-01-03T18:31:18.312Z,98128.44
2024-01-03T18:36:22.323Z,98144.63
2024-01-03T18:41:27.359Z,98154.22
2024-01-03T18:46:32.425Z,98147.25
2024-01-03T18:51:36.682Z,98155.03
2024-01-03T18:56:44.068Z,98153.94
2024-01-03T19:01:50.455Z,98145.34
2024-01-03T19:06:54.121Z,98155.78
2024-01-03T19:11:59.174Z,98161.91
2024-01-03T19:17:03.983Z,98159.28
2024-01-03T19:22:07.664Z,98161.84
2024-01-03T19:27:13.525Z,98158.28
2024-01-03T19:32:17.184Z,98152.78
2024-01-03T19:37:20.745Z,98157.88
2024-01-03T19:42:26.958Z,98153.38
2024-01-03T19:47:31.482Z,98159.28
2024-01-03T19:52:35.296Z,98158.00
2024-01-03T19:57:41.754Z,98157.34
2024-01-03T20:02:46.456Z,98163.63
2024-01-03T20:07:50.564Z,98159.63
2024-01-03T20:12:55.485Z,98160.19
2024-01-03T20:17:59.638Z,98163.59
2024-01-03T20:23:03.320Z,98166.78
2024-01-03T20:28:08.320Z,98170.19
2024-01-03T20:33:11.987Z,98181.78
2024-01-03T20:38:15.553Z,98183.88
2024-01-03T20:43:22.192Z,98176.09
2024-01-03T20:48:26.141Z,98194.28
2024-01-03T20:53:30.448Z,98187.75
2024-01-03T20:58:36.186Z,98188.09
2024-01-03T21:03:40.623Z,98191.28
2024-01-03T21:08:44.340Z,98189.78
2024-01-03T21:13:49.414Z,98200.19
2024-01-03T21:18:53.030Z,98193.50
2024-01-03T21:23:56.770Z,98204.72
2024-01-03T21:29:27.929Z,98202.47
2024-01-03T21:34:27.515Z,98203.59
2024-01-03T21:39:31.202Z,98208.88
2024-01-03T21:44:36.180Z,98214.72
2024-01-03T21:49:39.972Z,98214.59
2024-01-03T21:54:43.647Z,98219.81
2024-01-03T21:59:48.770Z,98214.19
2024-01-03T22:04:52.410Z,98222.88
2024-01-03T22:09:57.353Z,98224.69
2024-01-03T22:15:02.431Z,98227.19
2024-01-03T22:20:06.895Z,98222.38
2024-01-03T22:25:11.539Z,98229.06
2024-01-03T22:30:16.874Z,98230.38
2024-01-03T22:35:22.396Z,98219.53
2024-01-03T22:40:26.026Z,98218.91
2024-01-03T22:45:31.090Z,98225.25
2024-01-03T22:50:34.727Z,98214.56
2024-01-03T22:55:38.311Z,98219.53
2024-01-03T23:00:43.453Z,98223.13
2024-01-03T23:05:47.154Z,98231.19
2024-01-03T23:10:50.829Z,98229.16
2024-01-03T23:15:55.842Z,98237.97
2024-01-03T23:20:59.574Z,98243.25
2024-01-03T23:26:03.311Z,98254.09
2024-01-03T23:31:08.275Z,98255.84
2024-01-03T23:36:12.173Z,98260.00
2024-01-03T23:41:17.866Z,98275.19
2024-01-03T23:46:22.881Z,98275.03
2024-01-03T23:51:26.566Z,98278.28
2024-01-03T23:56:31.525Z,98270.06
